X  Fechar Metar - Info de Aeroporto     EDLV Weeze Airport
Temperatura
21°C Temperatura
14°C Ptº Orvalho
64% Humidade



Vento
21 KM/H
13 MPH
6 M/S
11 NÓS



240°
OSO
Condições Atuais

Pouco Nublado Pouco Nublado
Pressão 1011.85 (hPa) - 29.88 (inHg)
Visibilidade 6 (milha) - 9.7 (km)
Aeroporto
Código-Aeropoto EDLV

Localização: Weeze Airport
Distância: 23 (km)

Metar:
EDLV 161520Z 24011KT 200V260 9999 FEW038 21/14 Q1012

Hora: 16-07-2024 17:20 CEST